Current Weather Conditions: station 62114

sailwx.info

See reports from other nearby stations

no recent reports received from weather station ID 62114

Tides Pressure Air temp Water temp Dewpoint Dewpoint depression Visibility Wind speed Wind direction Waves Ship positions
date/time (UTC)wind fromknots sea level pressurealtimeterstation pressurevisibilityair tempwater tempwave heightnotes
2017-Aug-19 12:00 260 22 13.2
2017-Aug-19 11:00 260 22 13.2
2017-Aug-19 10:00 260 24 13.0
2017-Aug-19 09:00 260 25 13.0
2017-Aug-19 08:00 270 24 13.0
2017-Aug-19 07:00 270 27 12.7
2017-Aug-19 06:00 270 26 12.9
2017-Aug-19 05:00 260 27 12.8
2017-Aug-19 04:00 270 27 12.9
2017-Aug-19 03:00 270 25 12.9
2017-Aug-19 02:00 280 21 12.9
2017-Aug-19 01:00 290 12 12.6
2017-Aug-19 00:00 280 12 12.5
2017-Aug-18 23:00 300 11 12.1
2017-Aug-18 22:00 320 6 13.2
2017-Aug-18 21:00 130 15 11.6
2017-Aug-18 20:00 180 18 12.3
2017-Aug-18 19:00 200 17 12.2
2017-Aug-18 18:00 210 18 12.4
2017-Aug-18 17:00 220 19 12.5
2017-Aug-18 16:00 220 15 12.7
2017-Aug-18 15:00 190 17 13.4
2017-Aug-18 14:00 180 13 13.5
2017-Aug-18 13:00 190 14 13.0
2017-Aug-18 12:00 170 7 13.0
2017-Aug-18 11:00 160 12 12.8
2017-Aug-18 10:00 150 19 14.0
2017-Aug-18 09:00 160 20 14.3
2017-Aug-18 08:00 150 20 14.2
2017-Aug-18 07:00 150 17 14.2
2017-Aug-18 06:00 160 18 14.0
2017-Aug-18 05:00 170 15 14.1
2017-Aug-18 04:00 170 14 14.2
2017-Aug-18 03:00 170 15 14.3
2017-Aug-18 02:00 180 14 14.7
2017-Aug-18 01:00 190 15 14.7
2017-Aug-18 00:00 190 15 14.6
2017-Aug-17 23:00 190 14 14.9
2017-Aug-17 22:00 200 20 15.0
2017-Aug-17 21:00 200 19 15.2
2017-Aug-17 20:00 200 20 14.9
2017-Aug-17 19:00 200 18 14.8
2017-Aug-17 18:00 200 13 14.6
2017-Aug-17 17:00 210 15 14.0
2017-Aug-17 16:00 210 13 13.6
2017-Aug-17 15:00 210 11 13.5
2017-Aug-17 14:00 210 11 13.6
2017-Aug-17 13:00 210 11 13.2